OOCL Nagoya — VRFX8 — position and weather

sailwx.info

Track history (hours):
 
Tides and Currents Weather Stations Pressure Air Temp Water Temp Dewpoint Dewpoint Depression Visibility Wind Speed Wind Dir Waves Ship Positions

OOCL Nagoya

Last reported at 2014-Dec-21 09:33 UTC. Time now 2014-Dec-21 09:58 UTC.
Position N 01°16' E 103°51'.

Length 261 m; draft 10.6 m.

Type: Cargo ship. MMSI: 477627900.

Date/timePositionNaut miles runAvg speedWind from/ knotsBaromVisibWave heightAir tempDewpointWater temp
2014-Dec-21 09:33N 01°16' E 103°51'3 3.0
2014-Dec-21 08:33N 01°14' E 103°54'5 4.7
2014-Dec-21 07:26N 01°15' E 103°59'  
2014-Dec-19 00:00N 11°00' E 109°30'68928.7 030 / 211008.010.8 3.525.024.0
2014-Dec-18 00:00N 17°00' E 119°36'42418.6 030 / 251008.010.8 3.025.020.0
2014-Dec-17 01:15N 22°04' E 114°22'1115.5
2014-Dec-17 00:32N 22°10' E 114°12'1211.8
2014-Dec-16 23:33N 22°19' E 114°05'1111.4
2014-Dec-16 22:33N 22°23' E 113°54'4 3.8
2014-Dec-16 21:32N 22°27' E 113°54'0 0.0
2014-Dec-16 20:26N 22°27' E 113°54'0 0.0
2014-Dec-16 19:32N 22°27' E 113°54'0 0.0
2014-Dec-16 18:32N 22°27' E 113°54'0 0.0
2014-Dec-16 17:26N 22°27' E 113°54'0 0.0
2014-Dec-16 16:26N 22°27' E 113°54'0 0.0
2014-Dec-16 15:32N 22°27' E 113°54'0 0.0
2014-Dec-16 14:33N 22°27' E 113°54'0 0.0
2014-Dec-16 12:20N 22°27' E 113°54'0 0.0
2014-Dec-16 11:20N 22°27' E 113°54'0 0.0
2014-Dec-16 10:20N 22°27' E 113°54'0 0.0
2014-Dec-16 09:32N 22°27' E 113°54'0 0.0
2014-Dec-16 08:26N 22°27' E 113°54'0 0.0
2014-Dec-16 07:32N 22°27' E 113°54'0 0.0
2014-Dec-16 06:32N 22°27' E 113°54'0 0.0
2014-Dec-16 05:33N 22°27' E 113°54'4 3.7
2014-Dec-16 04:27N 22°23' E 113°54'1111.2
2014-Dec-16 03:28N 22°19' E 114°05'13 9.9
2014-Dec-16 02:09N 22°09' E 114°14'1210.6
2014-Dec-16 01:03N 22°09' E 114°26'172 9.8
2014-Dec-15 07:32N 22°19' E 117°31'9913.2
2014-Dec-15 00:00N 22°30' E 119°18'34 7.7 060 / 131009.010.8 20.020.0
2014-Dec-14 19:33N 22°30' E 119°55'1111.3
2014-Dec-14 18:33N 22°32' E 120°07'1111.1
2014-Dec-14 17:33N 22°33' E 120°19'1 1.1
2014-Dec-14 16:33N 22°34' E 120°19'0 0.0
2014-Dec-14 14:28N 22°34' E 120°19'0 0.0
2014-Dec-14 13:28N 22°34' E 120°19'0 0.0
2014-Dec-14 12:22N 22°34' E 120°19'0 0.0
2014-Dec-14 11:22N 22°34' E 120°19'0 0.0
2014-Dec-14 10:28N 22°34' E 120°19'0 0.0
2014-Dec-14 09:28N 22°34' E 120°19'1 1.5
2014-Dec-14 08:33N 22°33' E 120°18'10 9.9
2014-Dec-14 07:34N 22°24' E 120°13'  
2014-Dec-11 10:33N 33°58' E 134°54'1515.4
2014-Dec-11 09:33N 34°13' E 134°57'  
Track history (hours):
 
Tides and Currents Weather Stations Pressure Air Temp Water Temp Dewpoint Dewpoint Depression Visibility Wind Speed Wind Dir Waves Ship Positions

OOCL Nagoya

Last reported at 2014-Dec-21 09:33 UTC. Time now 2014-Dec-21 09:58 UTC.
Position N 01°16' E 103°51'.

Length 261 m; draft 10.6 m.

Type: Cargo ship. MMSI: 477627900.

Date/timePositionNaut miles runAvg speedWind from/ knotsBaromVisibWave heightAir tempDewpointWater temp
2014-Dec-21 09:33N 01°16' E 103°51'3 3.0
2014-Dec-21 08:33N 01°14' E 103°54'5 4.7
2014-Dec-21 07:26N 01°15' E 103°59'  
2014-Dec-19 00:00N 11°00' E 109°30'68928.7 030 / 211008.010.8 3.525.024.0
2014-Dec-18 00:00N 17°00' E 119°36'42418.6 030 / 251008.010.8 3.025.020.0
2014-Dec-17 01:15N 22°04' E 114°22'1115.5
2014-Dec-17 00:32N 22°10' E 114°12'1211.8
2014-Dec-16 23:33N 22°19' E 114°05'1111.4
2014-Dec-16 22:33N 22°23' E 113°54'4 3.8
2014-Dec-16 21:32N 22°27' E 113°54'0 0.0
2014-Dec-16 20:26N 22°27' E 113°54'0 0.0
2014-Dec-16 19:32N 22°27' E 113°54'0 0.0
2014-Dec-16 18:32N 22°27' E 113°54'0 0.0
2014-Dec-16 17:26N 22°27' E 113°54'0 0.0
2014-Dec-16 16:26N 22°27' E 113°54'0 0.0
2014-Dec-16 15:32N 22°27' E 113°54'0 0.0
2014-Dec-16 14:33N 22°27' E 113°54'0 0.0
2014-Dec-16 12:20N 22°27' E 113°54'0 0.0
2014-Dec-16 11:20N 22°27' E 113°54'0 0.0
2014-Dec-16 10:20N 22°27' E 113°54'0 0.0
2014-Dec-16 09:32N 22°27' E 113°54'0 0.0
2014-Dec-16 08:26N 22°27' E 113°54'0 0.0
2014-Dec-16 07:32N 22°27' E 113°54'0 0.0
2014-Dec-16 06:32N 22°27' E 113°54'0 0.0
2014-Dec-16 05:33N 22°27' E 113°54'4 3.7
2014-Dec-16 04:27N 22°23' E 113°54'1111.2
2014-Dec-16 03:28N 22°19' E 114°05'13 9.9
2014-Dec-16 02:09N 22°09' E 114°14'1210.6
2014-Dec-16 01:03N 22°09' E 114°26'172 9.8
2014-Dec-15 07:32N 22°19' E 117°31'9913.2
2014-Dec-15 00:00N 22°30' E 119°18'34 7.7 060 / 131009.010.8 20.020.0
2014-Dec-14 19:33N 22°30' E 119°55'1111.3
2014-Dec-14 18:33N 22°32' E 120°07'1111.1
2014-Dec-14 17:33N 22°33' E 120°19'1 1.1
2014-Dec-14 16:33N 22°34' E 120°19'0 0.0
2014-Dec-14 14:28N 22°34' E 120°19'0 0.0
2014-Dec-14 13:28N 22°34' E 120°19'0 0.0
2014-Dec-14 12:22N 22°34' E 120°19'0 0.0
2014-Dec-14 11:22N 22°34' E 120°19'0 0.0
2014-Dec-14 10:28N 22°34' E 120°19'0 0.0
2014-Dec-14 09:28N 22°34' E 120°19'1 1.5
2014-Dec-14 08:33N 22°33' E 120°18'10 9.9
2014-Dec-14 07:34N 22°24' E 120°13'  
2014-Dec-11 10:33N 33°58' E 134°54'1515.4
2014-Dec-11 09:33N 34°13' E 134°57'  

Dump ship's entire track history